Southington, CT (06489)

1:59 AM EDT on July 26, 2016 (GMT -0400)
Farmstead Apartments | | Change Station
Active Advisory: Air Quality Alert Active Notice: Record Report

Elev 223 ft 41.61 °N, 72.88 °W | Updated 3 minutes ago

Clear
Clear
69.4 °F
Feels Like 69.4 °F
N
0.0
Wind Variable Wind from South

Today
High -- | Low -- °F
--% Chance of Precip.
Yesterday
High -- | Low -- °F
Precip. -- in
Pressure 29.82 in
Visibility 10.0 miles
Clouds Clear
Dew Point 65 °F
Humidity 86%
Rainfall 0.00 in
Snow Depth Not available.
5:40 AM 8:14 PM
Waning Gibbous, 58% visible
METAR KMMK 260553Z AUTO 20003KT 10SM CLR 21/19 A2983 RMK AO2 SLP098 60008 T02110194 10250 20211 58007 TSNO
Pressure 29.82 in
Visibility 10.0 miles
Clouds Clear
Dew Point 65 °F
Humidity 86%
Rainfall 0.00 in
Snow Depth Not available.
5:40 AM 8:14 PM
Waning Gibbous, 58% visible
METAR KMMK 260553Z AUTO 20003KT 10SM CLR 21/19 A2983 RMK AO2 SLP098 60008 T02110194 10250 20211 58007 TSNO

10-Day Weather Forecast

Almanac

Astronomy

Jul. 26, 2016 Rise Set
Actual Time
Civil Twilight
Nautical Twilight
Astronomical Twilight
Moon
Length of Visible Light
Length of Day
Tomorrow will be .
, % of the Moon is Illuminated

Today's Extremes

State Highs State Lows

Community

WunderPhotos

Upload Photos

1,927,547 photos uploaded!

WunderBlog® & News

Nearby

Air Quality

  Air Quality AQ Index Pollutant
Not available.

Snow Depth

Station Depth Elevation

Earthquake Activity

City Distance Mag. Time & Date
Minimum magnitude displayed is 2.5.

Coastal Water Temperatures

Place Temperature

Stations

Nearby Weather Stations

Station Location Temp. Windchill Dew Point Humidity Wind Precip. Elev Updated Type
                   

Watches & Warnings

Air Quality Alert
Issued: 9:40 AM EDT Jul. 25, 2016 – National Weather Service

... Air quality alert in effect until 10 PM EDT this evening...

The Connecticut department of environmental protection has issued an
air quality action day for ground level ozone... in effect until
10 PM EDT this evening.

An air quality action day means that ground level ozone
concentrations within the region may approach or exceed unhealthy
standards. For additional information... please visit the
Connecticut department of environmental protection website at...

Http://www.CT.Gov/deep/aqi /all lowercase letters/



940 am EDT Mon Jul 25 2016

... Air quality alert in effect until 10 PM EDT this evening...

The Connecticut department of environmental protection has issued an
air quality action day for ground level ozone... in effect until
10 PM EDT this evening.

An air quality action day means that ground level ozone
concentrations within the region may approach or exceed unhealthy
standards. For additional information... please visit the
Connecticut department of environmental protection website at...

Http://www.CT.Gov/deep/aqi /all lowercase letters/